Time;durP1;ratioP1;P1;durP2;ratioP2;P2;SDS_P1;SDS_P2;PMS_P1;PMS_P2;Temp;Humidity;BMP_temperature;BMP_pressure;BME280_temperature;BME280_humidity;BME280_pressure;Samples;Min_cycle;Max_cycle;Signal;HPM_P1;HPM_P2
2022/03/29 00:01:31;;;;;;;;;;;21.90;25.30;;;;;;482430;246;1154;-58
2022/03/29 00:03:32;;;;;;;;;;;21.90;25.20;;;;;;482327;246;1090;-59
2022/03/29 00:05:33;;;;;;;;;;;21.90;25.20;;;;;;482315;243;2176;-59
2022/03/29 00:07:35;;;;;;;;;;;21.90;25.30;;;;;;482304;246;1073;-59
2022/03/29 00:09:36;;;;;;;;;;;21.90;25.20;;;;;;482241;246;1076;-59
2022/03/29 00:11:37;;;;;;;;;;;21.90;25.20;;;;;;482326;246;1189;-59
2022/03/29 00:13:39;;;;;;;;;;;21.90;25.30;;;;;;482367;246;1217;-59
2022/03/29 00:15:40;;;;;;;;;;;22.00;25.20;;;;;;482340;246;1075;-59
2022/03/29 00:17:41;;;;;;;;;;;22.00;25.20;;;;;;482306;246;1115;-58
2022/03/29 00:19:43;;;;;;;;;;;22.00;25.20;;;;;;482328;246;1049;-59
2022/03/29 00:21:44;;;;;;;;;;;21.90;25.20;;;;;;482182;246;1197;-59
2022/03/29 00:23:45;;;;;;;;;;;21.90;25.30;;;;;;482340;246;1036;-58
2022/03/29 00:25:46;;;;;;;;;;;22.00;25.30;;;;;;482582;246;2145;-59
2022/03/29 00:27:49;;;;;;;;;;;21.90;25.30;;;;;;482364;246;1087;-58
2022/03/29 00:29:50;;;;;;;;;;;21.90;25.30;;;;;;482283;246;1530;-58
2022/03/29 00:31:51;;;;;;;;;;;21.90;25.30;;;;;;482387;246;996;-59
2022/03/29 00:33:52;;;;;;;;;;;22.00;25.30;;;;;;482354;246;1045;-59
2022/03/29 00:35:54;;;;;;;;;;;21.90;25.40;;;;;;482261;246;1071;-59
2022/03/29 00:37:56;;;;;;;;;;;21.90;25.30;;;;;;482277;246;1046;-59
2022/03/29 00:39:56;;;;;;;;;;;21.90;25.40;;;;;;482262;247;1332;-59
2022/03/29 00:41:58;;;;;;;;;;;21.80;25.40;;;;;;482246;246;979;-59
2022/03/29 00:43:59;;;;;;;;;;;21.80;25.50;;;;;;482390;246;1279;-59
2022/03/29 00:46:00;;;;;;;;;;;21.90;25.30;;;;;;482215;246;2185;-59
2022/03/29 00:48:02;;;;;;;;;;;21.80;25.40;;;;;;482329;246;1248;-59
2022/03/29 00:50:03;;;;;;;;;;;21.80;25.50;;;;;;482290;246;990;-59
2022/03/29 00:52:04;;;;;;;;;;;21.80;25.50;;;;;;482225;246;1129;-59
2022/03/29 00:54:06;;;;;;;;;;;21.80;25.50;;;;;;482292;246;1056;-59
2022/03/29 00:56:07;;;;;;;;;;;21.80;25.50;;;;;;482235;246;1005;-59
2022/03/29 00:58:08;;;;;;;;;;;21.80;25.50;;;;;;482301;246;1018;-58
2022/03/29 01:00:10;;;;;;;;;;;21.80;25.50;;;;;;482284;246;1439;-59
2022/03/29 01:02:11;;;;;;;;;;;21.80;25.50;;;;;;482354;246;1042;-59
2022/03/29 01:04:13;;;;;;;;;;;21.80;25.50;;;;;;482716;246;1277;-59
2022/03/29 01:06:14;;;;;;;;;;;21.80;25.50;;;;;;482543;246;2253;-59
2022/03/29 01:08:15;;;;;;;;;;;21.80;25.50;;;;;;482238;246;1069;-59
2022/03/29 01:10:16;;;;;;;;;;;21.90;25.50;;;;;;482205;246;1336;-59
2022/03/29 01:12:18;;;;;;;;;;;21.80;25.50;;;;;;482264;246;988;-59
2022/03/29 01:14:19;;;;;;;;;;;21.80;25.50;;;;;;482324;246;1196;-59
2022/03/29 01:18:40;;;;;;;;;;;21.90;25.50;;;;;;482268;247;1148;-59
2022/03/29 01:20:42;;;;;;;;;;;21.80;25.50;;;;;;482269;246;1048;-60
2022/03/29 01:22:43;;;;;;;;;;;21.80;25.50;;;;;;482253;246;1241;-59
2022/03/29 01:24:46;;;;;;;;;;;21.80;25.60;;;;;;482661;246;1505;-59
2022/03/29 01:26:45;;;;;;;;;;;21.80;25.60;;;;;;482173;247;2192;-59
2022/03/29 01:28:47;;;;;;;;;;;21.80;25.60;;;;;;482310;246;1158;-59
2022/03/29 01:30:48;;;;;;;;;;;21.80;25.60;;;;;;482233;246;1261;-59
2022/03/29 01:32:49;;;;;;;;;;;21.80;25.60;;;;;;482365;246;1032;-59
2022/03/29 01:34:51;;;;;;;;;;;21.80;25.70;;;;;;482261;246;1285;-59
2022/03/29 01:36:52;;;;;;;;;;;21.90;25.60;;;;;;482306;246;1049;-59
2022/03/29 01:38:54;;;;;;;;;;;21.90;25.60;;;;;;482495;246;1017;-59
2022/03/29 01:40:55;;;;;;;;;;;21.80;25.60;;;;;;482276;246;1092;-59
2022/03/29 01:42:56;;;;;;;;;;;21.80;25.60;;;;;;482582;246;1213;-59
2022/03/29 01:44:57;;;;;;;;;;;21.80;25.60;;;;;;482418;246;1184;-58
2022/03/29 01:46:58;;;;;;;;;;;21.80;25.60;;;;;;482332;246;2129;-59
2022/03/29 01:49:00;;;;;;;;;;;21.90;25.60;;;;;;482290;246;1075;-59
2022/03/29 01:51:01;;;;;;;;;;;21.90;25.60;;;;;;482302;246;1043;-59
2022/03/29 01:53:03;;;;;;;;;;;21.90;25.70;;;;;;482297;246;1053;-59
2022/03/29 01:55:04;;;;;;;;;;;21.80;25.70;;;;;;482326;246;1075;-59
2022/03/29 01:57:05;;;;;;;;;;;21.80;25.70;;;;;;482253;246;1070;-59
2022/03/29 01:59:06;;;;;;;;;;;21.80;25.70;;;;;;482378;246;1300;-59
2022/03/29 02:01:08;;;;;;;;;;;21.70;25.80;;;;;;482330;246;983;-59
2022/03/29 02:03:09;;;;;;;;;;;21.80;25.80;;;;;;482318;246;960;-58
2022/03/29 02:05:11;;;;;;;;;;;21.80;25.80;;;;;;482375;246;1085;-59
2022/03/29 02:07:12;;;;;;;;;;;21.80;25.80;;;;;;482239;246;2137;-59
2022/03/29 02:09:13;;;;;;;;;;;21.80;25.80;;;;;;482350;246;1079;-59
2022/03/29 02:11:15;;;;;;;;;;;21.80;25.80;;;;;;482228;246;1070;-59
2022/03/29 02:13:16;;;;;;;;;;;21.80;25.80;;;;;;482234;244;1471;-59
2022/03/29 02:15:17;;;;;;;;;;;21.80;25.90;;;;;;482266;246;1142;-59
2022/03/29 02:17:19;;;;;;;;;;;21.70;25.80;;;;;;482222;246;1046;-59
2022/03/29 02:19:20;;;;;;;;;;;21.70;25.90;;;;;;482218;246;1068;-59
2022/03/29 02:21:21;;;;;;;;;;;21.80;25.90;;;;;;482291;246;1027;-59
2022/03/29 02:23:23;;;;;;;;;;;21.80;25.90;;;;;;482256;246;1067;-59
2022/03/29 02:25:24;;;;;;;;;;;21.80;25.90;;;;;;482556;246;1018;-59
2022/03/29 02:27:25;;;;;;;;;;;21.80;25.90;;;;;;482268;246;2188;-59
2022/03/29 02:29:27;;;;;;;;;;;21.80;25.90;;;;;;482262;246;1297;-59
2022/03/29 02:31:28;;;;;;;;;;;21.80;25.90;;;;;;482458;246;1118;-59
2022/03/29 02:33:29;;;;;;;;;;;21.80;25.90;;;;;;482540;246;1023;-59
2022/03/29 02:35:30;;;;;;;;;;;21.70;26.00;;;;;;482413;246;1032;-59
2022/03/29 02:37:32;;;;;;;;;;;21.70;25.90;;;;;;482353;246;997;-60
2022/03/29 02:39:33;;;;;;;;;;;21.70;26.00;;;;;;482284;246;1033;-59
2022/03/29 02:41:34;;;;;;;;;;;21.70;26.00;;;;;;482274;246;1220;-59
2022/03/29 02:43:36;;;;;;;;;;;21.70;26.00;;;;;;482444;246;1031;-59
2022/03/29 02:45:37;;;;;;;;;;;21.70;26.00;;;;;;482285;246;1189;-59
2022/03/29 02:47:38;;;;;;;;;;;21.70;26.00;;;;;;482236;246;2205;-58
2022/03/29 02:49:40;;;;;;;;;;;21.70;26.10;;;;;;482364;246;1110;-58
2022/03/29 02:51:41;;;;;;;;;;;21.70;26.10;;;;;;482484;246;1095;-59
2022/03/29 02:53:42;;;;;;;;;;;21.70;26.10;;;;;;482392;246;1173;-59
2022/03/29 02:55:45;;;;;;;;;;;21.60;26.20;;;;;;482247;246;1059;-59
2022/03/29 02:57:46;;;;;;;;;;;21.60;26.10;;;;;;482232;246;1412;-59
2022/03/29 02:59:46;;;;;;;;;;;21.70;26.10;;;;;;482285;246;1461;-59
2022/03/29 03:01:48;;;;;;;;;;;21.60;26.10;;;;;;482222;246;1257;-59
2022/03/29 03:03:49;;;;;;;;;;;21.70;26.10;;;;;;482443;246;1042;-59
2022/03/29 03:05:50;;;;;;;;;;;21.60;26.10;;;;;;482290;246;1064;-59
2022/03/29 03:07:52;;;;;;;;;;;21.70;26.10;;;;;;482338;246;2142;-59
2022/03/29 03:09:53;;;;;;;;;;;21.70;26.10;;;;;;482235;246;1096;-59
2022/03/29 03:11:55;;;;;;;;;;;21.60;26.20;;;;;;482266;246;1048;-59
2022/03/29 03:13:56;;;;;;;;;;;21.70;26.10;;;;;;482239;246;1054;-59
2022/03/29 03:15:57;;;;;;;;;;;21.70;26.10;;;;;;482308;246;1164;-59
2022/03/29 03:17:58;;;;;;;;;;;21.70;26.10;;;;;;482587;246;1106;-59
2022/03/29 03:20:00;;;;;;;;;;;21.70;26.10;;;;;;482270;246;1062;-60
2022/03/29 03:22:01;;;;;;;;;;;21.60;26.10;;;;;;482242;246;974;-59
2022/03/29 03:24:02;;;;;;;;;;;21.70;26.20;;;;;;482295;246;1082;-60
2022/03/29 03:26:04;;;;;;;;;;;21.70;26.10;;;;;;482238;246;1019;-59
2022/03/29 03:28:06;;;;;;;;;;;21.70;26.10;;;;;;482299;246;2125;-59
2022/03/29 03:30:07;;;;;;;;;;;21.70;26.10;;;;;;482302;246;1204;-59
2022/03/29 03:32:09;;;;;;;;;;;21.70;26.10;;;;;;482579;246;1079;-59
2022/03/29 03:34:10;;;;;;;;;;;21.70;26.20;;;;;;482567;246;1224;-59
2022/03/29 03:36:11;;;;;;;;;;;21.70;26.20;;;;;;482313;246;1021;-59
2022/03/29 03:38:13;;;;;;;;;;;21.70;26.10;;;;;;482316;246;1284;-59
2022/03/29 03:40:14;;;;;;;;;;;21.70;26.10;;;;;;482290;246;1110;-59
2022/03/29 03:42:15;;;;;;;;;;;21.70;26.20;;;;;;482368;246;1042;-59
2022/03/29 03:44:17;;;;;;;;;;;21.70;26.30;;;;;;482290;246;946;-59
2022/03/29 03:46:18;;;;;;;;;;;21.70;26.20;;;;;;482377;246;1151;-59
2022/03/29 03:48:20;;;;;;;;;;;21.70;26.30;;;;;;482340;246;2126;-59
2022/03/29 03:50:21;;;;;;;;;;;21.70;26.30;;;;;;482308;246;1123;-59
2022/03/29 03:52:22;;;;;;;;;;;21.70;26.30;;;;;;482257;246;1015;-59
2022/03/29 03:54:23;;;;;;;;;;;21.80;26.30;;;;;;482398;246;1114;-60
2022/03/29 03:56:25;;;;;;;;;;;21.80;26.30;;;;;;482286;246;1074;-59
2022/03/29 03:58:26;;;;;;;;;;;21.70;26.30;;;;;;482378;246;1145;-59
2022/03/29 04:00:27;;;;;;;;;;;21.70;26.40;;;;;;482268;243;1297;-59
2022/03/29 04:02:28;;;;;;;;;;;21.70;26.40;;;;;;482293;246;1098;-59
2022/03/29 04:04:30;;;;;;;;;;;21.70;26.40;;;;;;482240;246;1078;-59
2022/03/29 04:06:31;;;;;;;;;;;21.60;26.40;;;;;;482461;246;1080;-59
2022/03/29 04:08:32;;;;;;;;;;;21.60;26.40;;;;;;482232;246;2193;-58
2022/03/29 04:10:34;;;;;;;;;;;21.70;26.40;;;;;;482194;246;1030;-59
2022/03/29 04:12:35;;;;;;;;;;;21.70;26.40;;;;;;482296;246;1204;-60
2022/03/29 04:14:37;;;;;;;;;;;21.70;26.40;;;;;;482194;246;1068;-59
2022/03/29 04:16:38;;;;;;;;;;;21.70;26.40;;;;;;482235;246;1222;-59
2022/03/29 04:18:39;;;;;;;;;;;21.70;26.40;;;;;;482191;246;1040;-59
2022/03/29 04:20:41;;;;;;;;;;;21.60;26.40;;;;;;482143;246;1214;-60
2022/03/29 04:22:42;;;;;;;;;;;21.60;26.40;;;;;;482299;246;1110;-60
2022/03/29 04:24:44;;;;;;;;;;;21.70;26.40;;;;;;482370;246;1082;-59
2022/03/29 04:26:45;;;;;;;;;;;21.70;26.40;;;;;;482244;246;1120;-59
2022/03/29 04:28:46;;;;;;;;;;;21.70;26.40;;;;;;482138;246;2118;-59
2022/03/29 04:30:47;;;;;;;;;;;21.70;26.40;;;;;;482081;246;1082;-60
2022/03/29 04:32:49;;;;;;;;;;;21.70;26.50;;;;;;482260;246;1199;-59
2022/03/29 04:34:50;;;;;;;;;;;21.70;26.50;;;;;;482216;246;1214;-59
2022/03/29 04:36:51;;;;;;;;;;;21.70;26.50;;;;;;482158;246;1191;-59
2022/03/29 04:38:53;;;;;;;;;;;21.70;26.50;;;;;;482184;246;1245;-59
2022/03/29 04:40:54;;;;;;;;;;;21.70;26.40;;;;;;482305;246;1062;-59
2022/03/29 04:42:56;;;;;;;;;;;21.70;26.50;;;;;;482138;246;1099;-59
2022/03/29 04:44:57;;;;;;;;;;;21.70;26.50;;;;;;482066;246;1043;-59
2022/03/29 04:46:58;;;;;;;;;;;21.70;26.50;;;;;;482081;246;1158;-59
2022/03/29 04:49:00;;;;;;;;;;;21.70;26.60;;;;;;482086;246;2173;-59
2022/03/29 04:51:01;;;;;;;;;;;21.70;26.50;;;;;;481895;246;1092;-59
2022/03/29 04:53:02;;;;;;;;;;;21.70;26.50;;;;;;481879;243;1112;-59
2022/03/29 04:55:04;;;;;;;;;;;21.60;26.60;;;;;;481831;246;1178;-59
2022/03/29 04:57:05;;;;;;;;;;;21.70;26.60;;;;;;481874;246;1891;-59
2022/03/29 04:59:06;;;;;;;;;;;21.70;26.50;;;;;;482109;246;1034;-59
2022/03/29 05:01:08;;;;;;;;;;;21.70;26.60;;;;;;482015;246;1433;-59
2022/03/29 05:03:09;;;;;;;;;;;21.70;26.50;;;;;;481973;246;1062;-59
2022/03/29 05:05:10;;;;;;;;;;;21.70;26.60;;;;;;481917;246;1065;-59
2022/03/29 05:07:12;;;;;;;;;;;21.70;26.60;;;;;;481897;246;1043;-59
2022/03/29 05:09:13;;;;;;;;;;;21.70;26.60;;;;;;482037;246;2114;-59
2022/03/29 05:11:15;;;;;;;;;;;21.70;26.70;;;;;;481903;246;1120;-60
2022/03/29 05:13:16;;;;;;;;;;;21.70;26.60;;;;;;481878;247;1501;-59
2022/03/29 05:15:17;;;;;;;;;;;21.70;26.60;;;;;;482043;246;1024;-60
2022/03/29 05:17:18;;;;;;;;;;;21.80;26.60;;;;;;481959;246;1236;-59
2022/03/29 05:19:20;;;;;;;;;;;21.70;26.60;;;;;;481945;246;1041;-59
2022/03/29 05:21:21;;;;;;;;;;;21.70;26.60;;;;;;481962;246;1048;-60
2022/03/29 05:23:23;;;;;;;;;;;21.70;26.70;;;;;;481878;246;1331;-60
2022/03/29 05:25:24;;;;;;;;;;;21.70;26.60;;;;;;481846;246;2166;-59
2022/03/29 05:27:25;;;;;;;;;;;21.70;26.70;;;;;;481837;246;1056;-60
2022/03/29 05:29:28;;;;;;;;;;;21.70;26.80;;;;;;481891;246;1242;-60
2022/03/29 05:31:28;;;;;;;;;;;21.70;26.80;;;;;;481804;247;1291;-60
2022/03/29 05:33:29;;;;;;;;;;;21.70;26.80;;;;;;481984;246;1136;-59
2022/03/29 05:35:31;;;;;;;;;;;21.60;26.80;;;;;;481940;246;1036;-59
2022/03/29 05:37:32;;;;;;;;;;;21.70;26.70;;;;;;481828;246;1638;-60
2022/03/29 05:39:33;;;;;;;;;;;21.70;26.80;;;;;;482022;246;1029;-59
2022/03/29 05:41:34;;;;;;;;;;;21.70;26.80;;;;;;481936;246;1208;-60
2022/03/29 05:43:36;;;;;;;;;;;21.70;26.80;;;;;;481955;246;1097;-60
2022/03/29 05:45:37;;;;;;;;;;;21.70;26.90;;;;;;481956;246;1047;-59
2022/03/29 05:49:58;;;;;;;;;;;21.70;26.80;;;;;;481885;247;1083;-59
2022/03/29 05:51:59;;;;;;;;;;;21.70;26.90;;;;;;481790;246;1098;-60
2022/03/29 05:54:01;;;;;;;;;;;21.60;26.90;;;;;;481796;246;1098;-59
2022/03/29 05:56:02;;;;;;;;;;;21.60;27.00;;;;;;481818;246;1068;-59
2022/03/29 05:58:03;;;;;;;;;;;21.60;26.90;;;;;;481779;246;1073;-60
2022/03/29 06:00:06;;;;;;;;;;;21.70;27.00;;;;;;481864;246;1088;-59
2022/03/29 06:02:06;;;;;;;;;;;21.60;27.00;;;;;;481764;247;2258;-60
2022/03/29 06:04:07;;;;;;;;;;;21.60;27.10;;;;;;481843;246;1099;-59
2022/03/29 06:06:09;;;;;;;;;;;21.60;27.10;;;;;;481809;246;1099;-60
2022/03/29 06:08:11;;;;;;;;;;;21.60;27.10;;;;;;481797;246;2125;-59
2022/03/29 06:10:12;;;;;;;;;;;21.70;27.10;;;;;;481775;246;1250;-59
2022/03/29 06:12:13;;;;;;;;;;;21.70;27.10;;;;;;481768;246;2129;-60
2022/03/29 06:14:15;;;;;;;;;;;21.60;27.10;;;;;;481928;246;1086;-59
2022/03/29 06:16:16;;;;;;;;;;;21.60;27.20;;;;;;481893;246;1915;-59
2022/03/29 06:18:17;;;;;;;;;;;21.70;27.20;;;;;;481844;246;1119;-60
2022/03/29 06:20:19;;;;;;;;;;;21.60;27.20;;;;;;481756;246;1078;-60
2022/03/29 06:22:20;;;;;;;;;;;21.60;27.20;;;;;;481735;246;1061;-60
2022/03/29 06:24:22;;;;;;;;;;;21.70;27.20;;;;;;481706;246;996;-60
2022/03/29 06:26:23;;;;;;;;;;;21.70;27.20;;;;;;481728;246;1109;-59
2022/03/29 06:28:24;;;;;;;;;;;21.70;27.20;;;;;;481621;246;2201;-60
2022/03/29 06:30:25;;;;;;;;;;;21.70;27.20;;;;;;481764;246;1033;-59
2022/03/29 06:32:27;;;;;;;;;;;21.80;27.10;;;;;;481780;246;1226;-60
2022/03/29 06:34:29;;;;;;;;;;;21.70;27.30;;;;;;481775;246;1057;-60
2022/03/29 06:36:29;;;;;;;;;;;21.60;27.40;;;;;;481502;247;2296;-59
2022/03/29 06:38:32;;;;;;;;;;;21.60;27.50;;;;;;481425;246;1069;-59
2022/03/29 06:40:32;;;;;;;;;;;21.50;27.50;;;;;;481347;246;2307;-60
2022/03/29 06:42:33;;;;;;;;;;;21.60;27.50;;;;;;481394;246;1122;-59
2022/03/29 06:44:34;;;;;;;;;;;21.60;27.60;;;;;;481591;246;1066;-59
2022/03/29 06:46:36;;;;;;;;;;;21.60;27.60;;;;;;481372;246;1202;-59
2022/03/29 06:48:37;;;;;;;;;;;21.60;27.60;;;;;;481463;246;2169;-60
2022/03/29 06:50:38;;;;;;;;;;;21.60;27.60;;;;;;481380;246;1099;-59
2022/03/29 06:52:40;;;;;;;;;;;21.60;27.70;;;;;;481697;246;989;-60
2022/03/29 06:54:41;;;;;;;;;;;21.60;27.70;;;;;;481440;246;1039;-59
2022/03/29 06:56:42;;;;;;;;;;;21.60;27.70;;;;;;481228;246;1041;-60
2022/03/29 06:58:44;;;;;;;;;;;21.60;27.80;;;;;;481447;246;1071;-59
2022/03/29 07:00:45;;;;;;;;;;;21.60;27.80;;;;;;481351;246;1134;-60
2022/03/29 07:02:47;;;;;;;;;;;21.60;27.70;;;;;;481351;246;1346;-59
2022/03/29 07:04:48;;;;;;;;;;;21.70;27.70;;;;;;481228;246;1382;-59
2022/03/29 07:06:49;;;;;;;;;;;21.70;27.70;;;;;;481199;246;1098;-59
2022/03/29 07:11:21;;;;;;;;;;;21.60;27.80;;;;;;481284;247;1054;-59
2022/03/29 07:13:22;;;;;;;;;;;21.70;27.80;;;;;;481416;246;2333;-59
2022/03/29 07:15:21;;;;;;;;;;;21.70;27.80;;;;;;481318;247;1470;-59
2022/03/29 07:17:23;;;;;;;;;;;21.70;27.80;;;;;;481462;246;1165;-59
2022/03/29 07:19:27;;;;;;;;;;;21.60;27.90;;;;;;481333;246;1094;-59
2022/03/29 07:21:26;;;;;;;;;;;21.70;27.90;;;;;;481061;247;1590;-59
2022/03/29 07:23:27;;;;;;;;;;;21.60;27.90;;;;;;481229;246;1079;-59
2022/03/29 07:25:32;;;;;;;;;;;21.70;27.80;;;;;;481254;246;1200;-60
2022/03/29 07:27:30;;;;;;;;;;;21.70;27.80;;;;;;481194;247;1534;-60
2022/03/29 07:29:32;;;;;;;;;;;21.80;27.80;;;;;;481336;246;2180;-59
2022/03/29 07:31:32;;;;;;;;;;;21.70;27.80;;;;;;481274;247;2027;-59
2022/03/29 07:33:34;;;;;;;;;;;21.70;27.80;;;;;;481234;246;1177;-59
2022/03/29 07:35:35;;;;;;;;;;;21.70;27.80;;;;;;480987;246;1071;-60
2022/03/29 07:37:36;;;;;;;;;;;21.70;27.80;;;;;;481087;246;1088;-59
2022/03/29 07:39:38;;;;;;;;;;;21.70;27.80;;;;;;481203;246;1078;-59
2022/03/29 07:41:39;;;;;;;;;;;21.70;27.80;;;;;;481098;247;1794;-59
2022/03/29 07:43:40;;;;;;;;;;;21.70;27.90;;;;;;480424;246;1082;-59
2022/03/29 07:45:41;;;;;;;;;;;21.80;27.80;;;;;;481075;246;1114;-59
2022/03/29 07:47:43;;;;;;;;;;;21.70;27.80;;;;;;481272;246;1330;-59
2022/03/29 07:49:45;;;;;;;;;;;21.70;27.90;;;;;;481162;246;2189;-59
2022/03/29 07:51:46;;;;;;;;;;;21.80;27.80;;;;;;480837;246;1045;-60
2022/03/29 07:53:47;;;;;;;;;;;21.70;27.90;;;;;;480450;246;1525;-60
2022/03/29 07:55:49;;;;;;;;;;;21.80;27.90;;;;;;481109;246;1249;-59
2022/03/29 07:57:50;;;;;;;;;;;21.80;27.80;;;;;;480957;247;1381;-60
2022/03/29 07:59:51;;;;;;;;;;;21.80;27.80;;;;;;481175;246;1084;-60
2022/03/29 08:01:54;;;;;;;;;;;21.80;27.90;;;;;;481049;246;1104;-60
2022/03/29 08:03:54;;;;;;;;;;;21.80;27.90;;;;;;481208;246;1668;-60
2022/03/29 08:05:57;;;;;;;;;;;21.80;27.90;;;;;;481213;246;1375;-59
2022/03/29 08:07:57;;;;;;;;;;;21.80;27.80;;;;;;481123;246;1326;-59
2022/03/29 08:09:59;;;;;;;;;;;21.80;27.80;;;;;;481258;246;2196;-59
2022/03/29 08:12:00;;;;;;;;;;;21.80;27.70;;;;;;481229;246;1143;-60
2022/03/29 08:14:01;;;;;;;;;;;21.90;27.60;;;;;;481240;246;1098;-59
2022/03/29 08:16:03;;;;;;;;;;;21.80;27.60;;;;;;481234;246;1270;-59
2022/03/29 08:18:04;;;;;;;;;;;21.80;27.60;;;;;;481177;246;1210;-60
2022/03/29 08:20:05;;;;;;;;;;;21.80;27.50;;;;;;481163;246;1091;-59
2022/03/29 08:22:07;;;;;;;;;;;21.90;27.50;;;;;;481130;246;1073;-59
2022/03/29 08:24:09;;;;;;;;;;;21.90;27.30;;;;;;481302;246;1082;-59
2022/03/29 08:26:10;;;;;;;;;;;21.90;27.40;;;;;;481092;247;1422;-59
2022/03/29 08:28:11;;;;;;;;;;;21.90;27.40;;;;;;481327;246;1203;-59
2022/03/29 08:30:12;;;;;;;;;;;21.90;27.30;;;;;;481186;246;2200;-60
2022/03/29 08:32:14;;;;;;;;;;;21.90;27.30;;;;;;481294;246;1187;-59
2022/03/29 08:34:15;;;;;;;;;;;21.90;27.30;;;;;;481164;246;1192;-59
2022/03/29 08:36:16;;;;;;;;;;;21.80;27.40;;;;;;481124;246;1073;-59
2022/03/29 08:38:18;;;;;;;;;;;21.90;27.30;;;;;;480299;246;1096;-60
2022/03/29 08:40:21;;;;;;;;;;;21.90;27.30;;;;;;481191;246;1053;-59
2022/03/29 08:42:22;;;;;;;;;;;21.90;27.20;;;;;;481244;247;1507;-59
2022/03/29 08:44:22;;;;;;;;;;;21.90;27.30;;;;;;481016;247;2148;-59
2022/03/29 08:46:23;;;;;;;;;;;21.60;27.50;;;;;;481289;246;1302;-59
2022/03/29 08:48:24;;;;;;;;;;;21.50;27.50;;;;;;481325;246;1206;-60
2022/03/29 08:50:26;;;;;;;;;;;21.70;27.50;;;;;;481301;246;2118;-59
2022/03/29 08:52:27;;;;;;;;;;;21.80;27.30;;;;;;481291;246;1090;-59
2022/03/29 08:54:29;;;;;;;;;;;21.80;27.30;;;;;;481331;246;1111;-60
2022/03/29 08:56:30;;;;;;;;;;;21.80;27.40;;;;;;481265;246;1064;-60
2022/03/29 08:58:31;;;;;;;;;;;21.80;27.30;;;;;;481360;246;1054;-60
2022/03/29 09:00:34;;;;;;;;;;;21.80;27.20;;;;;;480785;246;1098;-59
2022/03/29 09:02:34;;;;;;;;;;;21.80;27.30;;;;;;481065;246;2014;-60
2022/03/29 09:04:35;;;;;;;;;;;21.90;27.20;;;;;;481510;246;1272;-59
2022/03/29 09:06:36;;;;;;;;;;;21.90;27.20;;;;;;481503;246;1049;-59
2022/03/29 09:08:38;;;;;;;;;;;21.90;27.20;;;;;;481357;246;1048;-60
2022/03/29 09:10:39;;;;;;;;;;;21.90;27.20;;;;;;481324;246;2185;-60
2022/03/29 09:12:40;;;;;;;;;;;21.90;27.20;;;;;;481469;246;1127;-59
2022/03/29 09:14:42;;;;;;;;;;;21.90;27.30;;;;;;481336;246;1047;-60
2022/03/29 09:16:43;;;;;;;;;;;22.00;27.30;;;;;;481354;246;1116;-60
2022/03/29 09:18:45;;;;;;;;;;;21.90;27.20;;;;;;481360;246;1179;-59
2022/03/29 09:20:47;;;;;;;;;;;22.00;27.30;;;;;;481183;246;1098;-59
2022/03/29 09:22:47;;;;;;;;;;;21.90;27.40;;;;;;481099;247;1299;-59
2022/03/29 09:24:48;;;;;;;;;;;21.90;27.40;;;;;;481228;246;1042;-59
2022/03/29 09:26:50;;;;;;;;;;;22.00;27.30;;;;;;481143;246;1080;-59
2022/03/29 09:28:52;;;;;;;;;;;21.90;27.30;;;;;;481848;246;2189;-59
2022/03/29 09:30:53;;;;;;;;;;;22.00;27.30;;;;;;481614;246;750;-59
2022/03/29 09:32:54;;;;;;;;;;;22.00;27.20;;;;;;481497;246;1013;-59
2022/03/29 09:34:55;;;;;;;;;;;22.00;27.30;;;;;;481332;246;1135;-60
2022/03/29 09:36:57;;;;;;;;;;;22.00;27.30;;;;;;481087;246;852;-60
2022/03/29 09:38:59;;;;;;;;;;;22.00;27.30;;;;;;481504;246;766;-60
2022/03/29 09:40:59;;;;;;;;;;;21.90;27.30;;;;;;481882;247;1911;-59
2022/03/29 09:43:01;;;;;;;;;;;21.90;27.30;;;;;;482037;246;755;-60
2022/03/29 09:45:02;;;;;;;;;;;21.90;27.30;;;;;;481604;246;849;-59
2022/03/29 09:47:04;;;;;;;;;;;21.90;27.30;;;;;;481921;246;849;-60
2022/03/29 09:49:05;;;;;;;;;;;21.90;27.40;;;;;;481519;246;2201;-59
2022/03/29 09:51:06;;;;;;;;;;;22.00;27.30;;;;;;481611;246;853;-60
2022/03/29 09:53:08;;;;;;;;;;;21.90;27.30;;;;;;481533;246;842;-60
2022/03/29 09:55:10;;;;;;;;;;;21.90;27.30;;;;;;481764;246;795;-60
2022/03/29 09:57:11;;;;;;;;;;;21.90;27.40;;;;;;481157;246;787;-59
2022/03/29 09:59:14;;;;;;;;;;;21.90;27.40;;;;;;481320;243;1331;-60
2022/03/29 10:01:13;;;;;;;;;;;22.00;27.40;;;;;;481562;247;1400;-60
2022/03/29 10:03:17;;;;;;;;;;;22.00;27.40;;;;;;482241;246;836;-59
2022/03/29 10:05:16;;;;;;;;;;;22.00;27.40;;;;;;481350;247;1370;-59
2022/03/29 10:07:17;;;;;;;;;;;22.00;27.40;;;;;;481330;246;1081;-59
2022/03/29 10:09:27;;;;;;;;;;;22.00;27.30;;;;;;481437;246;2204;-59
2022/03/29 10:11:29;;;;;;;;;;;22.00;27.40;;;;;;481319;246;1107;-59
2022/03/29 10:13:30;;;;;;;;;;;22.00;27.30;;;;;;481259;246;1125;-59
2022/03/29 10:15:31;;;;;;;;;;;22.00;27.30;;;;;;481430;246;1050;-59
2022/03/29 10:17:33;;;;;;;;;;;22.10;27.40;;;;;;481359;246;1062;-59
2022/03/29 10:19:34;;;;;;;;;;;22.00;27.40;;;;;;481392;246;1232;-60
2022/03/29 10:21:36;;;;;;;;;;;22.00;27.40;;;;;;481194;246;1083;-59
2022/03/29 10:23:37;;;;;;;;;;;22.00;27.40;;;;;;481410;246;1056;-60
2022/03/29 10:25:38;;;;;;;;;;;22.10;27.40;;;;;;481529;246;1086;-60
2022/03/29 10:27:40;;;;;;;;;;;22.10;27.40;;;;;;481529;246;1118;-60
2022/03/29 10:29:41;;;;;;;;;;;22.10;27.40;;;;;;481475;246;2205;-59
2022/03/29 10:31:42;;;;;;;;;;;22.10;27.40;;;;;;481349;246;1041;-60
2022/03/29 10:33:44;;;;;;;;;;;22.10;27.40;;;;;;481317;246;1126;-59
2022/03/29 10:35:45;;;;;;;;;;;22.10;27.40;;;;;;481242;246;1228;-59
2022/03/29 10:37:46;;;;;;;;;;;22.10;27.40;;;;;;481225;246;1148;-60
2022/03/29 10:39:48;;;;;;;;;;;22.10;27.30;;;;;;481301;246;1252;-60
2022/03/29 10:41:49;;;;;;;;;;;22.10;27.40;;;;;;481247;246;1117;-60
2022/03/29 10:43:51;;;;;;;;;;;22.10;27.30;;;;;;481509;246;1031;-59
2022/03/29 10:45:52;;;;;;;;;;;22.00;27.50;;;;;;481385;246;1026;-59
2022/03/29 10:47:53;;;;;;;;;;;22.10;27.40;;;;;;481325;246;1069;-59
2022/03/29 10:49:55;;;;;;;;;;;22.10;27.40;;;;;;481260;246;2189;-60
2022/03/29 10:51:57;;;;;;;;;;;22.10;27.50;;;;;;481322;246;1079;-59
2022/03/29 10:53:58;;;;;;;;;;;22.10;27.40;;;;;;481492;246;1859;-60
2022/03/29 10:55:59;;;;;;;;;;;22.10;27.40;;;;;;481318;246;1341;-59
2022/03/29 10:58:00;;;;;;;;;;;22.10;27.40;;;;;;481355;246;1087;-59
2022/03/29 11:00:02;;;;;;;;;;;22.10;27.40;;;;;;481412;246;1047;-59
2022/03/29 11:02:03;;;;;;;;;;;22.10;27.40;;;;;;481206;246;1200;-60
2022/03/29 11:04:04;;;;;;;;;;;22.10;27.40;;;;;;481283;246;1053;-60
2022/03/29 11:06:06;;;;;;;;;;;22.00;27.40;;;;;;481271;246;1473;-60
2022/03/29 11:08:07;;;;;;;;;;;22.10;27.40;;;;;;481392;246;1022;-60
2022/03/29 11:10:09;;;;;;;;;;;22.10;27.40;;;;;;481332;246;2181;-59
2022/03/29 11:12:11;;;;;;;;;;;22.10;27.40;;;;;;481284;246;1064;-59
2022/03/29 11:14:12;;;;;;;;;;;22.10;27.40;;;;;;481331;246;1059;-59
2022/03/29 11:16:13;;;;;;;;;;;22.00;27.40;;;;;;481469;246;1263;-59
2022/03/29 11:18:15;;;;;;;;;;;22.10;27.40;;;;;;481412;246;1063;-59
2022/03/29 11:20:16;;;;;;;;;;;22.00;27.40;;;;;;481368;246;1186;-59
2022/03/29 11:22:17;;;;;;;;;;;22.00;27.30;;;;;;481257;246;1038;-60
2022/03/29 11:24:19;;;;;;;;;;;22.00;27.30;;;;;;481197;246;1068;-59
2022/03/29 11:26:20;;;;;;;;;;;22.00;27.30;;;;;;481175;246;1169;-59
2022/03/29 11:28:21;;;;;;;;;;;22.00;27.30;;;;;;481238;246;1083;-59
2022/03/29 11:30:22;;;;;;;;;;;22.00;27.30;;;;;;481225;246;2181;-60
2022/03/29 11:32:24;;;;;;;;;;;22.00;27.30;;;;;;481244;246;1057;-59
2022/03/29 11:34:25;;;;;;;;;;;22.10;27.30;;;;;;481305;246;1405;-59
2022/03/29 11:36:26;;;;;;;;;;;22.00;27.30;;;;;;481282;246;1188;-60
2022/03/29 11:38:28;;;;;;;;;;;22.00;27.30;;;;;;481386;246;1089;-60
2022/03/29 11:40:29;;;;;;;;;;;22.10;27.30;;;;;;481263;246;1118;-60
2022/03/29 11:42:30;;;;;;;;;;;22.00;27.20;;;;;;481266;246;1072;-59
2022/03/29 11:44:32;;;;;;;;;;;22.00;27.20;;;;;;481221;246;1015;-60
2022/03/29 11:46:33;;;;;;;;;;;22.00;27.30;;;;;;481104;246;1056;-59
2022/03/29 11:48:35;;;;;;;;;;;22.00;27.20;;;;;;481307;246;1031;-60
2022/03/29 11:50:36;;;;;;;;;;;22.00;27.30;;;;;;481441;246;2153;-60
2022/03/29 11:52:38;;;;;;;;;;;22.00;27.20;;;;;;481410;246;1139;-59
2022/03/29 11:54:38;;;;;;;;;;;22.10;27.20;;;;;;481310;246;2231;-60
2022/03/29 11:56:40;;;;;;;;;;;22.10;27.10;;;;;;481199;246;1080;-60
2022/03/29 11:58:41;;;;;;;;;;;22.30;27.00;;;;;;481342;246;1068;-60
2022/03/29 12:00:43;;;;;;;;;;;22.30;26.90;;;;;;481189;246;1164;-59
2022/03/29 12:02:44;;;;;;;;;;;22.40;26.70;;;;;;481276;246;1160;-59
2022/03/29 12:04:45;;;;;;;;;;;22.50;26.70;;;;;;481202;246;1092;-60